sensor_id;sensor_type;location;lat;lon;timestamp;temperature;humidity
37544;DHT22;23385;52.038;20.322;2022-09-01T00:02:23;11.50;99.90
37544;DHT22;23385;52.038;20.322;2022-09-01T00:04:52;11.50;99.90
37544;DHT22;23385;52.038;20.322;2022-09-01T00:07:22;11.40;99.90
37544;DHT22;23385;52.038;20.322;2022-09-01T00:09:47;11.40;99.90
37544;DHT22;23385;52.038;20.322;2022-09-01T00:12:13;11.40;99.90
37544;DHT22;23385;52.038;20.322;2022-09-01T00:14:40;11.30;99.90
37544;DHT22;23385;52.038;20.322;2022-09-01T00:17:09;11.10;99.90
37544;DHT22;23385;52.038;20.322;2022-09-01T00:19:35;10.90;99.90
37544;DHT22;23385;52.038;20.322;2022-09-01T00:22:03;10.80;99.90
37544;DHT22;23385;52.038;20.322;2022-09-01T00:24:29;10.80;99.90
37544;DHT22;23385;52.038;20.322;2022-09-01T00:26:55;10.80;99.90
37544;DHT22;23385;52.038;20.322;2022-09-01T00:29:22;10.80;99.90
37544;DHT22;23385;52.038;20.322;2022-09-01T00:31:49;10.80;99.90
37544;DHT22;23385;52.038;20.322;2022-09-01T00:34:16;10.80;99.90
37544;DHT22;23385;52.038;20.322;2022-09-01T00:36:42;10.70;99.90
37544;DHT22;23385;52.038;20.322;2022-09-01T00:39:08;10.80;99.90
37544;DHT22;23385;52.038;20.322;2022-09-01T00:41:36;10.70;99.90
37544;DHT22;23385;52.038;20.322;2022-09-01T00:44:11;10.70;99.90
37544;DHT22;23385;52.038;20.322;2022-09-01T00:46:44;10.70;99.90
37544;DHT22;23385;52.038;20.322;2022-09-01T00:51:54;10.60;99.90
37544;DHT22;23385;52.038;20.322;2022-09-01T00:54:25;10.50;99.90
37544;DHT22;23385;52.038;20.322;2022-09-01T00:56:52;10.50;99.90
37544;DHT22;23385;52.038;20.322;2022-09-01T00:59:20;10.40;99.90
37544;DHT22;23385;52.038;20.322;2022-09-01T01:01:47;10.40;99.90
37544;DHT22;23385;52.038;20.322;2022-09-01T01:04:13;10.30;99.90
37544;DHT22;23385;52.038;20.322;2022-09-01T01:06:58;10.30;99.90
37544;DHT22;23385;52.038;20.322;2022-09-01T01:09:29;10.30;99.90
37544;DHT22;23385;52.038;20.322;2022-09-01T01:11:58;10.20;99.90
37544;DHT22;23385;52.038;20.322;2022-09-01T01:14:27;10.20;99.90
37544;DHT22;23385;52.038;20.322;2022-09-01T01:16:58;10.20;99.90
37544;DHT22;23385;52.038;20.322;2022-09-01T01:19:48;10.20;99.90
37544;DHT22;23385;52.038;20.322;2022-09-01T01:25:39;10.10;99.90
37544;DHT22;23385;52.038;20.322;2022-09-01T01:28:22;10.10;99.90
37544;DHT22;23385;52.038;20.322;2022-09-01T01:31:16;10.10;99.90
37544;DHT22;23385;52.038;20.322;2022-09-01T01:33:51;10.00;99.90
37544;DHT22;23385;52.038;20.322;2022-09-01T01:36:32;10.00;99.90
37544;DHT22;23385;52.038;20.322;2022-09-01T01:39:17;10.00;99.90
37544;DHT22;23385;52.038;20.322;2022-09-01T01:41:44;9.90;99.90
37544;DHT22;23385;52.038;20.322;2022-09-01T01:44:19;9.90;99.90
37544;DHT22;23385;52.038;20.322;2022-09-01T01:46:50;9.90;99.90
37544;DHT22;23385;52.038;20.322;2022-09-01T01:49:18;9.80;99.90
37544;DHT22;23385;52.038;20.322;2022-09-01T01:51:51;9.80;99.90
37544;DHT22;23385;52.038;20.322;2022-09-01T01:54:21;9.70;99.90
37544;DHT22;23385;52.038;20.322;2022-09-01T01:56:48;9.70;99.90
37544;DHT22;23385;52.038;20.322;2022-09-01T01:59:14;9.70;99.90
37544;DHT22;23385;52.038;20.322;2022-09-01T02:01:43;9.60;99.90
37544;DHT22;23385;52.038;20.322;2022-09-01T02:04:14;9.60;99.90
37544;DHT22;23385;52.038;20.322;2022-09-01T02:06:42;9.50;99.90
37544;DHT22;23385;52.038;20.322;2022-09-01T02:09:11;9.50;99.90
37544;DHT22;23385;52.038;20.322;2022-09-01T02:11:37;9.50;99.90
37544;DHT22;23385;52.038;20.322;2022-09-01T02:19:14;9.30;99.90
37544;DHT22;23385;52.038;20.322;2022-09-01T02:21:44;9.30;99.90
37544;DHT22;23385;52.038;20.322;2022-09-01T02:24:14;9.30;99.90
37544;DHT22;23385;52.038;20.322;2022-09-01T02:26:43;9.20;99.90
37544;DHT22;23385;52.038;20.322;2022-09-01T02:29:18;9.20;99.90
37544;DHT22;23385;52.038;20.322;2022-09-01T02:31:48;9.10;99.90
37544;DHT22;23385;52.038;20.322;2022-09-01T02:34:15;9.10;99.90
37544;DHT22;23385;52.038;20.322;2022-09-01T02:36:44;9.10;99.90
37544;DHT22;23385;52.038;20.322;2022-09-01T02:39:18;9.00;99.90
37544;DHT22;23385;52.038;20.322;2022-09-01T02:41:44;9.00;99.90
37544;DHT22;23385;52.038;20.322;2022-09-01T02:44:10;9.00;99.90
37544;DHT22;23385;52.038;20.322;2022-09-01T02:46:45;8.90;99.90
37544;DHT22;23385;52.038;20.322;2022-09-01T02:49:14;8.90;99.90
37544;DHT22;23385;52.038;20.322;2022-09-01T02:51:47;8.90;99.90
37544;DHT22;23385;52.038;20.322;2022-09-01T02:54:14;8.90;99.90
37544;DHT22;23385;52.038;20.322;2022-09-01T02:56:43;8.80;99.90
37544;DHT22;23385;52.038;20.322;2022-09-01T02:59:14;8.70;99.90
37544;DHT22;23385;52.038;20.322;2022-09-01T03:01:41;8.70;99.90
37544;DHT22;23385;52.038;20.322;2022-09-01T03:04:08;8.70;99.90
37544;DHT22;23385;52.038;20.322;2022-09-01T03:06:36;8.60;99.90
37544;DHT22;23385;52.038;20.322;2022-09-01T03:09:05;8.60;99.90
37544;DHT22;23385;52.038;20.322;2022-09-01T03:11:34;8.60;99.90
37544;DHT22;23385;52.038;20.322;2022-09-01T03:14:02;8.50;99.90
37544;DHT22;23385;52.038;20.322;2022-09-01T03:16:28;8.50;99.90
37544;DHT22;23385;52.038;20.322;2022-09-01T03:18:58;8.40;99.90
37544;DHT22;23385;52.038;20.322;2022-09-01T03:21:24;8.40;99.90
37544;DHT22;23385;52.038;20.322;2022-09-01T03:23:51;8.40;99.90
37544;DHT22;23385;52.038;20.322;2022-09-01T03:26:18;8.30;99.90
37544;DHT22;23385;52.038;20.322;2022-09-01T03:28:47;8.30;99.90
37544;DHT22;23385;52.038;20.322;2022-09-01T03:31:13;8.30;99.90
37544;DHT22;23385;52.038;20.322;2022-09-01T03:33:39;8.20;99.90
37544;DHT22;23385;52.038;20.322;2022-09-01T03:36:06;8.20;99.90
37544;DHT22;23385;52.038;20.322;2022-09-01T03:38:32;8.20;99.90
37544;DHT22;23385;52.038;20.322;2022-09-01T03:41:04;8.10;99.90
37544;DHT22;23385;52.038;20.322;2022-09-01T03:43:32;8.10;99.90
37544;DHT22;23385;52.038;20.322;2022-09-01T03:45:59;8.10;99.90
37544;DHT22;23385;52.038;20.322;2022-09-01T03:48:29;8.00;99.90
37544;DHT22;23385;52.038;20.322;2022-09-01T03:50:58;8.00;99.90
37544;DHT22;23385;52.038;20.322;2022-09-01T03:53:28;8.00;99.90
37544;DHT22;23385;52.038;20.322;2022-09-01T03:55:54;8.00;99.90
37544;DHT22;23385;52.038;20.322;2022-09-01T03:58:23;7.90;99.90
37544;DHT22;23385;52.038;20.322;2022-09-01T04:00:51;7.90;99.90
37544;DHT22;23385;52.038;20.322;2022-09-01T04:03:21;7.90;99.90
37544;DHT22;23385;52.038;20.322;2022-09-01T04:05:49;7.80;99.90
37544;DHT22;23385;52.038;20.322;2022-09-01T04:08:16;7.80;99.90
37544;DHT22;23385;52.038;20.322;2022-09-01T04:10:48;7.80;99.90
37544;DHT22;23385;52.038;20.322;2022-09-01T04:13:21;7.70;99.90
37544;DHT22;23385;52.038;20.322;2022-09-01T04:15:49;7.70;99.90
37544;DHT22;23385;52.038;20.322;2022-09-01T04:18:16;7.70;99.90
37544;DHT22;23385;52.038;20.322;2022-09-01T04:20:51;7.60;99.90
37544;DHT22;23385;52.038;20.322;2022-09-01T04:23:20;7.60;99.90
37544;DHT22;23385;52.038;20.322;2022-09-01T04:25:59;7.60;99.90
37544;DHT22;23385;52.038;20.322;2022-09-01T04:28:31;7.60;99.90
37544;DHT22;23385;52.038;20.322;2022-09-01T04:31:04;7.60;99.90
37544;DHT22;23385;52.038;20.322;2022-09-01T04:33:31;7.60;99.90
37544;DHT22;23385;52.038;20.322;2022-09-01T04:36:21;7.60;99.90
37544;DHT22;23385;52.038;20.322;2022-09-01T04:38:50;7.60;99.90
37544;DHT22;23385;52.038;20.322;2022-09-01T04:41:26;7.50;99.90
37544;DHT22;23385;52.038;20.322;2022-09-01T04:43:53;7.50;99.90
37544;DHT22;23385;52.038;20.322;2022-09-01T04:46:24;7.50;99.90
37544;DHT22;23385;52.038;20.322;2022-09-01T04:48:52;7.50;99.90
37544;DHT22;23385;52.038;20.322;2022-09-01T04:51:18;7.50;99.90
37544;DHT22;23385;52.038;20.322;2022-09-01T04:53:45;7.60;99.90
37544;DHT22;23385;52.038;20.322;2022-09-01T04:56:15;7.60;99.90
37544;DHT22;23385;52.038;20.322;2022-09-01T04:58:47;7.60;99.90
37544;DHT22;23385;52.038;20.322;2022-09-01T05:01:26;7.70;99.90
37544;DHT22;23385;52.038;20.322;2022-09-01T05:03:52;7.70;99.90
37544;DHT22;23385;52.038;20.322;2022-09-01T05:06:25;7.80;99.90
37544;DHT22;23385;52.038;20.322;2022-09-01T05:08:50;7.90;99.90
37544;DHT22;23385;52.038;20.322;2022-09-01T05:11:17;8.00;99.90
37544;DHT22;23385;52.038;20.322;2022-09-01T05:13:45;8.10;99.90
37544;DHT22;23385;52.038;20.322;2022-09-01T05:16:15;8.30;99.90
37544;DHT22;23385;52.038;20.322;2022-09-01T05:18:45;8.40;99.90
37544;DHT22;23385;52.038;20.322;2022-09-01T05:21:19;8.60;99.90
37544;DHT22;23385;52.038;20.322;2022-09-01T05:23:47;8.80;99.90
37544;DHT22;23385;52.038;20.322;2022-09-01T05:26:30;9.00;99.90
37544;DHT22;23385;52.038;20.322;2022-09-01T05:28:59;9.30;99.90
37544;DHT22;23385;52.038;20.322;2022-09-01T05:31:27;9.60;99.90
37544;DHT22;23385;52.038;20.322;2022-09-01T05:33:54;9.90;99.90
37544;DHT22;23385;52.038;20.322;2022-09-01T05:36:23;10.20;99.90
37544;DHT22;23385;52.038;20.322;2022-09-01T05:38:50;10.50;99.90
37544;DHT22;23385;52.038;20.322;2022-09-01T05:41:18;10.70;99.90
37544;DHT22;23385;52.038;20.322;2022-09-01T05:43:46;11.00;99.90
37544;DHT22;23385;52.038;20.322;2022-09-01T05:46:25;11.20;99.90
37544;DHT22;23385;52.038;20.322;2022-09-01T05:48:53;11.60;99.90
37544;DHT22;23385;52.038;20.322;2022-09-01T14:56:34;20.80;97.20
37544;DHT22;23385;52.038;20.322;2022-09-01T14:59:00;20.40;99.10
37544;DHT22;23385;52.038;20.322;2022-09-01T15:01:27;20.30;99.00
37544;DHT22;23385;52.038;20.322;2022-09-01T15:03:53;20.20;98.80
37544;DHT22;23385;52.038;20.322;2022-09-01T15:06:21;20.30;99.10
37544;DHT22;23385;52.038;20.322;2022-09-01T15:08:48;20.50;99.90
37544;DHT22;23385;52.038;20.322;2022-09-01T15:11:18;20.60;99.90
37544;DHT22;23385;52.038;20.322;2022-09-01T15:13:44;20.60;99.90
37544;DHT22;23385;52.038;20.322;2022-09-01T15:16:16;20.40;99.90
37544;DHT22;23385;52.038;20.322;2022-09-01T15:18:43;20.40;99.90
37544;DHT22;23385;52.038;20.322;2022-09-01T15:21:29;20.40;99.90
37544;DHT22;23385;52.038;20.322;2022-09-01T15:23:56;20.30;99.90
37544;DHT22;23385;52.038;20.322;2022-09-01T15:26:22;20.30;99.90
37544;DHT22;23385;52.038;20.322;2022-09-01T15:28:49;20.30;99.90
37544;DHT22;23385;52.038;20.322;2022-09-01T15:31:16;20.00;99.90
37544;DHT22;23385;52.038;20.322;2022-09-01T15:33:43;20.10;99.90
37544;DHT22;23385;52.038;20.322;2022-09-01T15:36:18;20.30;99.90
37544;DHT22;23385;52.038;20.322;2022-09-01T15:38:44;20.40;99.90
37544;DHT22;23385;52.038;20.322;2022-09-01T15:41:27;20.30;99.90
37544;DHT22;23385;52.038;20.322;2022-09-01T15:43:53;20.10;99.90
37544;DHT22;23385;52.038;20.322;2022-09-01T15:46:20;19.90;99.90
37544;DHT22;23385;52.038;20.322;2022-09-01T15:48:46;19.90;99.90
37544;DHT22;23385;52.038;20.322;2022-09-01T15:53:49;19.60;99.90
37544;DHT22;23385;52.038;20.322;2022-09-01T15:56:15;19.60;99.90
37544;DHT22;23385;52.038;20.322;2022-09-01T15:58:48;19.50;99.90
37544;DHT22;23385;52.038;20.322;2022-09-01T16:01:16;19.60;99.90
37544;DHT22;23385;52.038;20.322;2022-09-01T16:03:42;19.60;99.90
37544;DHT22;23385;52.038;20.322;2022-09-01T16:06:09;19.50;99.90
37544;DHT22;23385;52.038;20.322;2022-09-01T16:08:36;19.50;99.90
37544;DHT22;23385;52.038;20.322;2022-09-01T16:11:07;19.60;99.90
37544;DHT22;23385;52.038;20.322;2022-09-01T16:13:39;19.70;99.90
37544;DHT22;23385;52.038;20.322;2022-09-01T16:21:46;19.70;99.90
37544;DHT22;23385;52.038;20.322;2022-09-01T16:24:14;19.70;99.90
37544;DHT22;23385;52.038;20.322;2022-09-01T16:26:45;19.50;99.90
37544;DHT22;23385;52.038;20.322;2022-09-01T16:29:27;19.50;99.90
37544;DHT22;23385;52.038;20.322;2022-09-01T16:31:58;19.50;99.90
37544;DHT22;23385;52.038;20.322;2022-09-01T16:34:24;19.60;99.90
37544;DHT22;23385;52.038;20.322;2022-09-01T16:52:55;18.70;99.90
37544;DHT22;23385;52.038;20.322;2022-09-01T17:03:23;17.90;99.90
37544;DHT22;23385;52.038;20.322;2022-09-01T17:06:02;17.80;99.90
37544;DHT22;23385;52.038;20.322;2022-09-01T17:08:32;17.50;99.90
37544;DHT22;23385;52.038;20.322;2022-09-01T17:11:10;17.50;99.90
37544;DHT22;23385;52.038;20.322;2022-09-01T17:13:50;17.20;99.90
37544;DHT22;23385;52.038;20.322;2022-09-01T17:16:37;17.10;99.90
37544;DHT22;23385;52.038;20.322;2022-09-01T17:19:10;16.90;99.90
37544;DHT22;23385;52.038;20.322;2022-09-01T17:21:45;16.80;99.90
37544;DHT22;23385;52.038;20.322;2022-09-01T17:27:37;16.60;99.90
37544;DHT22;23385;52.038;20.322;2022-09-01T17:30:06;16.70;99.90
37544;DHT22;23385;52.038;20.322;2022-09-01T17:32:57;16.80;99.90
37544;DHT22;23385;52.038;20.322;2022-09-01T17:35:37;16.90;99.90
37544;DHT22;23385;52.038;20.322;2022-09-01T17:38:38;16.90;99.90
37544;DHT22;23385;52.038;20.322;2022-09-01T17:41:25;16.90;99.90
37544;DHT22;23385;52.038;20.322;2022-09-01T17:46:44;16.80;99.90
37544;DHT22;23385;52.038;20.322;2022-09-01T18:00:59;16.30;99.90
37544;DHT22;23385;52.038;20.322;2022-09-01T18:09:14;16.00;99.90
37544;DHT22;23385;52.038;20.322;2022-09-01T18:12:03;15.90;99.90
37544;DHT22;23385;52.038;20.322;2022-09-01T18:17:18;15.60;99.90
37544;DHT22;23385;52.038;20.322;2022-09-01T18:19:52;15.50;99.90
37544;DHT22;23385;52.038;20.322;2022-09-01T18:22:22;15.30;99.90
37544;DHT22;23385;52.038;20.322;2022-09-01T18:24:57;15.30;99.90
37544;DHT22;23385;52.038;20.322;2022-09-01T18:27:23;15.10;99.90
37544;DHT22;23385;52.038;20.322;2022-09-01T18:29:51;15.10;99.90
37544;DHT22;23385;52.038;20.322;2022-09-01T18:37:45;14.70;99.90
37544;DHT22;23385;52.038;20.322;2022-09-01T18:40:27;14.60;99.90
37544;DHT22;23385;52.038;20.322;2022-09-01T18:56:51;14.10;99.90
37544;DHT22;23385;52.038;20.322;2022-09-01T19:11:07;13.60;99.90
37544;DHT22;23385;52.038;20.322;2022-09-01T19:22:01;13.30;99.90
37544;DHT22;23385;52.038;20.322;2022-09-01T19:27:02;13.10;99.90
37544;DHT22;23385;52.038;20.322;2022-09-01T19:29:52;13.10;99.90
37544;DHT22;23385;52.038;20.322;2022-09-01T19:32:22;13.00;99.90
37544;DHT22;23385;52.038;20.322;2022-09-01T19:35:09;13.00;99.90
37544;DHT22;23385;52.038;20.322;2022-09-01T19:37:37;12.90;99.90
37544;DHT22;23385;52.038;20.322;2022-09-01T19:40:04;12.90;99.90
37544;DHT22;23385;52.038;20.322;2022-09-01T19:43:06;12.80;99.90
37544;DHT22;23385;52.038;20.322;2022-09-01T19:48:47;12.70;99.90
37544;DHT22;23385;52.038;20.322;2022-09-01T19:51:16;12.70;99.90
37544;DHT22;23385;52.038;20.322;2022-09-01T20:02:07;12.50;99.90
37544;DHT22;23385;52.038;20.322;2022-09-01T20:15:47;12.20;99.90
37544;DHT22;23385;52.038;20.322;2022-09-01T20:18:23;12.10;99.90
37544;DHT22;23385;52.038;20.322;2022-09-01T20:20:51;12.00;99.90
37544;DHT22;23385;52.038;20.322;2022-09-01T20:23:28;12.00;99.90
37544;DHT22;23385;52.038;20.322;2022-09-01T20:26:07;11.90;99.90
37544;DHT22;23385;52.038;20.322;2022-09-01T20:31:26;11.80;99.90
37544;DHT22;23385;52.038;20.322;2022-09-01T20:37:15;11.70;99.90
37544;DHT22;23385;52.038;20.322;2022-09-01T20:45:21;11.60;99.90
37544;DHT22;23385;52.038;20.322;2022-09-01T20:47:55;11.60;99.90
37544;DHT22;23385;52.038;20.322;2022-09-01T21:02:00;11.30;99.90
37544;DHT22;23385;52.038;20.322;2022-09-01T21:07:18;11.20;99.90
37544;DHT22;23385;52.038;20.322;2022-09-01T21:12:49;11.10;99.90
37544;DHT22;23385;52.038;20.322;2022-09-01T21:23:16;10.90;99.90
37544;DHT22;23385;52.038;20.322;2022-09-01T21:25:45;10.80;99.90
37544;DHT22;23385;52.038;20.322;2022-09-01T21:28:12;10.80;99.90
37544;DHT22;23385;52.038;20.322;2022-09-01T21:30:49;10.70;99.90
37544;DHT22;23385;52.038;20.322;2022-09-01T21:33:20;10.70;99.90
37544;DHT22;23385;52.038;20.322;2022-09-01T21:35:46;10.60;99.90
37544;DHT22;23385;52.038;20.322;2022-09-01T21:38:11;10.60;99.90
37544;DHT22;23385;52.038;20.322;2022-09-01T21:40:37;10.60;99.90
37544;DHT22;23385;52.038;20.322;2022-09-01T21:43:07;10.60;99.90
37544;DHT22;23385;52.038;20.322;2022-09-01T21:45:38;10.50;99.90
37544;DHT22;23385;52.038;20.322;2022-09-01T21:48:05;10.40;99.90
37544;DHT22;23385;52.038;20.322;2022-09-01T21:50:33;10.40;99.90
37544;DHT22;23385;52.038;20.322;2022-09-01T21:52:59;10.30;99.90
37544;DHT22;23385;52.038;20.322;2022-09-01T21:55:25;10.30;99.90
37544;DHT22;23385;52.038;20.322;2022-09-01T21:57:52;10.20;99.90
37544;DHT22;23385;52.038;20.322;2022-09-01T22:00:25;10.20;99.90
37544;DHT22;23385;52.038;20.322;2022-09-01T22:02:51;10.10;99.90
37544;DHT22;23385;52.038;20.322;2022-09-01T22:05:18;10.10;99.90
37544;DHT22;23385;52.038;20.322;2022-09-01T22:07:46;10.10;99.90
37544;DHT22;23385;52.038;20.322;2022-09-01T22:10:15;10.00;99.90
37544;DHT22;23385;52.038;20.322;2022-09-01T22:12:44;10.00;99.90
37544;DHT22;23385;52.038;20.322;2022-09-01T22:15:13;10.00;99.90
37544;DHT22;23385;52.038;20.322;2022-09-01T22:17:41;9.90;99.90
37544;DHT22;23385;52.038;20.322;2022-09-01T22:20:08;9.90;99.90
37544;DHT22;23385;52.038;20.322;2022-09-01T22:22:35;9.90;99.90
37544;DHT22;23385;52.038;20.322;2022-09-01T22:25:07;9.80;99.90
37544;DHT22;23385;52.038;20.322;2022-09-01T22:27:33;9.80;99.90
37544;DHT22;23385;52.038;20.322;2022-09-01T22:29:59;9.80;99.90
37544;DHT22;23385;52.038;20.322;2022-09-01T22:32:25;9.70;99.90
37544;DHT22;23385;52.038;20.322;2022-09-01T22:34:51;9.70;99.90
37544;DHT22;23385;52.038;20.322;2022-09-01T22:37:16;9.70;99.90
37544;DHT22;23385;52.038;20.322;2022-09-01T22:39:43;9.60;99.90
37544;DHT22;23385;52.038;20.322;2022-09-01T22:42:09;9.50;99.90
37544;DHT22;23385;52.038;20.322;2022-09-01T22:44:36;9.40;99.90
37544;DHT22;23385;52.038;20.322;2022-09-01T22:47:02;9.40;99.90
37544;DHT22;23385;52.038;20.322;2022-09-01T22:49:29;9.30;99.90
37544;DHT22;23385;52.038;20.322;2022-09-01T22:51:55;9.30;99.90
37544;DHT22;23385;52.038;20.322;2022-09-01T22:54:20;9.30;99.90
37544;DHT22;23385;52.038;20.322;2022-09-01T22:56:46;9.30;99.90
37544;DHT22;23385;52.038;20.322;2022-09-01T22:59:14;9.20;99.90
37544;DHT22;23385;52.038;20.322;2022-09-01T23:01:42;9.20;99.90
37544;DHT22;23385;52.038;20.322;2022-09-01T23:04:11;9.20;99.90
37544;DHT22;23385;52.038;20.322;2022-09-01T23:06:46;9.20;99.90
37544;DHT22;23385;52.038;20.322;2022-09-01T23:09:13;9.10;99.90
37544;DHT22;23385;52.038;20.322;2022-09-01T23:11:39;9.00;99.90
37544;DHT22;23385;52.038;20.322;2022-09-01T23:14:05;9.00;99.90
37544;DHT22;23385;52.038;20.322;2022-09-01T23:16:30;8.90;99.90
37544;DHT22;23385;52.038;20.322;2022-09-01T23:18:57;8.90;99.90
37544;DHT22;23385;52.038;20.322;2022-09-01T23:21:26;8.80;99.90
37544;DHT22;23385;52.038;20.322;2022-09-01T23:23:53;8.80;99.90
37544;DHT22;23385;52.038;20.322;2022-09-01T23:26:19;8.70;99.90
37544;DHT22;23385;52.038;20.322;2022-09-01T23:28:46;8.70;99.90
37544;DHT22;23385;52.038;20.322;2022-09-01T23:31:18;8.60;99.90
37544;DHT22;23385;52.038;20.322;2022-09-01T23:33:45;8.60;99.90
37544;DHT22;23385;52.038;20.322;2022-09-01T23:36:12;8.60;99.90
37544;DHT22;23385;52.038;20.322;2022-09-01T23:38:39;8.60;99.90
37544;DHT22;23385;52.038;20.322;2022-09-01T23:41:08;8.50;99.90
37544;DHT22;23385;52.038;20.322;2022-09-01T23:43:34;8.50;99.90
37544;DHT22;23385;52.038;20.322;2022-09-01T23:46:00;8.50;99.90
37544;DHT22;23385;52.038;20.322;2022-09-01T23:48:25;8.40;99.90
37544;DHT22;23385;52.038;20.322;2022-09-01T23:50:55;8.40;99.90
37544;DHT22;23385;52.038;20.322;2022-09-01T23:53:24;8.40;99.90
37544;DHT22;23385;52.038;20.322;2022-09-01T23:55:52;8.40;99.90
37544;DHT22;23385;52.038;20.322;2022-09-01T23:58:20;8.30;99.90
